createdAt,value
2016-03-04T00:00:15.822Z,998.48
2016-03-04T00:01:15.888Z,998.51
2016-03-04T00:02:15.938Z,998.49
2016-03-04T00:03:15.988Z,998.49
2016-03-04T00:04:16.036Z,998.51
2016-03-04T00:05:16.085Z,998.51
2016-03-04T00:06:16.135Z,998.53
2016-03-04T00:07:16.185Z,998.53
2016-03-04T00:08:16.235Z,998.49
2016-03-04T00:09:16.285Z,998.5
2016-03-04T00:10:16.335Z,998.5
2016-03-04T00:11:16.399Z,998.5
2016-03-04T00:12:16.449Z,998.49
2016-03-04T00:13:16.482Z,998.48
2016-03-04T00:14:16.548Z,998.48
2016-03-04T00:15:16.598Z,998.5
2016-03-04T00:16:16.647Z,998.49
2016-03-04T00:17:16.696Z,998.47
2016-03-04T00:18:16.746Z,998.45
2016-03-04T00:19:16.795Z,998.45
2016-03-04T00:20:16.861Z,998.45
2016-03-04T00:21:16.895Z,998.47
2016-03-04T00:22:16.959Z,998.46
2016-03-04T00:23:17.009Z,998.48
2016-03-04T00:24:17.044Z,998.43
2016-03-04T00:25:17.109Z,998.48
2016-03-04T00:26:17.159Z,998.44
2016-03-04T00:27:17.191Z,998.48
2016-03-04T00:28:17.258Z,998.46
2016-03-04T00:29:17.307Z,998.43
2016-03-04T00:30:17.372Z,998.39
2016-03-04T00:31:17.410Z,998.39
2016-03-04T00:32:17.449Z,998.36
2016-03-04T00:33:17.515Z,998.37
2016-03-04T00:34:17.565Z,998.34
2016-03-04T00:35:17.615Z,998.31
2016-03-04T00:36:17.663Z,998.35
2016-03-04T00:37:17.712Z,998.34
2016-03-04T00:38:17.762Z,998.34
2016-03-04T00:39:17.813Z,998.32
2016-03-04T00:40:17.862Z,998.32
2016-03-04T00:41:17.912Z,998.3
2016-03-04T00:42:17.976Z,998.29
2016-03-04T00:43:18.011Z,998.28
2016-03-04T00:44:18.059Z,998.27
2016-03-04T00:45:18.125Z,998.23
2016-03-04T00:46:18.175Z,998.23
2016-03-04T00:47:18.225Z,998.22
2016-03-04T00:48:18.275Z,998.21
2016-03-04T00:49:18.323Z,998.22
2016-03-04T00:50:18.373Z,998.18
2016-03-04T00:51:18.422Z,998.2
2016-03-04T00:52:18.473Z,998.16
2016-03-04T00:53:18.522Z,998.15
2016-03-04T00:54:18.572Z,998.11
2016-03-04T00:55:18.622Z,998.15
2016-03-04T00:56:18.687Z,998.13
2016-03-04T00:57:18.720Z,998.11
2016-03-04T00:58:18.786Z,998.12
2016-03-04T00:59:18.836Z,998.11
2016-03-04T01:00:18.886Z,998.08
2016-03-04T01:01:18.935Z,998.07
2016-03-04T01:02:18.984Z,998.03
2016-03-04T01:03:19.034Z,998.02
2016-03-04T01:04:19.083Z,997.98
2016-03-04T01:05:19.134Z,997.97
2016-03-04T01:06:19.183Z,997.98
2016-03-04T01:07:19.233Z,998.01
2016-03-04T01:08:19.297Z,998.01
2016-03-04T01:09:19.332Z,998.01
2016-03-04T01:10:19.397Z,998.01
2016-03-04T01:11:19.447Z,998
2016-03-04T01:12:19.480Z,997.98
2016-03-04T01:13:19.546Z,997.98
2016-03-04T01:14:19.596Z,997.94
2016-03-04T01:15:19.644Z,997.86
2016-03-04T01:16:19.710Z,997.91
2016-03-04T01:17:19.760Z,997.9
2016-03-04T01:18:19.793Z,997.9
2016-03-04T01:19:19.858Z,997.93
2016-03-04T01:20:19.908Z,997.91
2016-03-04T01:21:19.957Z,997.89
2016-03-04T01:22:20.007Z,997.89
2016-03-04T01:23:20.056Z,997.82
2016-03-04T01:24:20.106Z,997.82
2016-03-04T01:25:20.156Z,997.81
2016-03-04T01:26:20.206Z,997.83
2016-03-04T01:27:20.255Z,997.8
2016-03-04T01:28:20.336Z,997.83
2016-03-04T01:29:20.354Z,997.8
2016-03-04T01:30:20.419Z,997.8
2016-03-04T01:31:20.469Z,997.81
2016-03-04T01:32:20.519Z,997.83
2016-03-04T01:33:20.584Z,997.8
2016-03-04T01:34:20.617Z,997.82
2016-03-04T01:35:20.667Z,997.83
2016-03-04T01:36:20.716Z,997.88
2016-03-04T01:37:20.782Z,997.85
2016-03-04T01:38:20.815Z,997.83
2016-03-04T01:39:20.881Z,997.87
2016-03-04T01:40:20.930Z,997.82
2016-03-04T01:41:20.964Z,997.83
2016-03-04T01:42:21.045Z,997.81
2016-03-04T01:43:21.063Z,997.8
2016-03-04T01:44:21.113Z,997.8
2016-03-04T01:45:21.179Z,997.76
2016-03-04T01:46:21.228Z,997.78
2016-03-04T01:47:21.277Z,997.77
2016-03-04T01:48:21.327Z,997.75
2016-03-04T01:49:21.393Z,997.72
2016-03-04T01:50:21.426Z,997.72
2016-03-04T01:51:21.475Z,997.7
2016-03-04T01:52:21.541Z,997.74
2016-03-04T01:53:21.576Z,997.69
2016-03-04T01:54:21.624Z,997.71
2016-03-04T01:55:21.673Z,997.67
2016-03-04T01:56:21.723Z,997.65
2016-03-04T01:57:21.773Z,997.6
2016-03-04T01:58:21.838Z,997.6
2016-03-04T01:59:21.872Z,997.61
2016-03-04T02:00:21.937Z,997.65
2016-03-04T02:01:21.972Z,997.63
2016-03-04T02:02:22.036Z,997.6
2016-03-04T02:03:22.087Z,997.59
2016-03-04T02:04:22.136Z,997.63
2016-03-04T02:05:22.186Z,997.59
2016-03-04T02:06:22.235Z,997.6
2016-03-04T02:07:22.283Z,997.59
2016-03-04T02:08:22.333Z,997.59
2016-03-04T02:09:22.383Z,997.56
2016-03-04T02:10:22.432Z,997.61
2016-03-04T02:11:22.498Z,997.58
2016-03-04T02:12:22.547Z,997.54
2016-03-04T02:13:22.581Z,997.55
2016-03-04T02:14:22.646Z,997.52
2016-03-04T02:15:22.712Z,997.57
2016-03-04T02:16:22.746Z,997.61
2016-03-04T02:17:22.810Z,997.59
2016-03-04T02:18:22.860Z,997.56
2016-03-04T02:19:22.910Z,997.57
2016-03-04T02:20:22.959Z,997.53
2016-03-04T02:21:23.009Z,997.48
2016-03-04T02:22:23.058Z,997.51
2016-03-04T02:23:23.108Z,997.46
2016-03-04T02:24:23.158Z,997.48
2016-03-04T02:25:23.207Z,997.48
2016-03-04T02:26:23.272Z,997.48
2016-03-04T02:27:23.311Z,997.46
2016-03-04T02:28:23.344Z,997.44
2016-03-04T02:29:23.410Z,997.51
2016-03-04T02:30:23.460Z,997.48
2016-03-04T02:31:23.510Z,997.45
2016-03-04T02:32:23.574Z,997.46
2016-03-04T02:33:23.608Z,997.47
2016-03-04T02:34:23.658Z,997.48
2016-03-04T02:35:23.724Z,997.46
2016-03-04T02:36:23.757Z,997.44
2016-03-04T02:37:23.822Z,997.45
2016-03-04T02:38:23.871Z,997.4
2016-03-04T02:39:23.921Z,997.4
2016-03-04T02:40:23.971Z,997.38
2016-03-04T02:41:24.004Z,997.4
2016-03-04T02:42:24.054Z,997.36
2016-03-04T02:43:24.120Z,997.4
2016-03-04T02:44:24.169Z,997.37
2016-03-04T02:45:24.203Z,997.34
2016-03-04T02:46:24.268Z,997.36
2016-03-04T02:47:24.333Z,997.33
2016-03-04T02:48:24.367Z,997.35
2016-03-04T02:49:24.417Z,997.32
2016-03-04T02:50:24.482Z,997.33
2016-03-04T02:51:24.531Z,997.36
2016-03-04T02:52:24.566Z,997.33
2016-03-04T02:53:24.630Z,997.36
2016-03-04T02:54:24.680Z,997.35
2016-03-04T02:55:24.730Z,997.37
2016-03-04T02:56:24.780Z,997.35
2016-03-04T02:57:24.845Z,997.3
2016-03-04T02:58:24.910Z,997.28
2016-03-04T02:59:24.928Z,997.29
2016-03-04T03:00:24.978Z,997.23
2016-03-04T03:01:25.028Z,997.26
2016-03-04T03:02:25.077Z,997.26
2016-03-04T03:03:25.142Z,997.24
2016-03-04T03:04:25.191Z,997.19
2016-03-04T03:05:25.226Z,997.18
2016-03-04T03:06:25.290Z,997.17
2016-03-04T03:07:25.340Z,997.18
2016-03-04T03:08:25.390Z,997.15
2016-03-04T03:09:25.440Z,997.12
2016-03-04T03:10:25.505Z,997.08
2016-03-04T03:11:25.538Z,997.1
2016-03-04T03:12:25.587Z,997.1
2016-03-04T03:13:25.653Z,997.06
2016-03-04T03:14:25.704Z,997.03
2016-03-04T03:15:25.737Z,997.06
2016-03-04T03:16:25.786Z,997.04
2016-03-04T03:17:25.836Z,997.01
2016-03-04T03:18:25.901Z,997.01
2016-03-04T03:19:25.950Z,997.01
2016-03-04T03:20:26.000Z,997.01
2016-03-04T03:21:26.065Z,997.03
2016-03-04T03:22:26.100Z,996.97
2016-03-04T03:23:26.164Z,996.97
2016-03-04T03:24:26.214Z,996.92
2016-03-04T03:25:26.263Z,996.9
2016-03-04T03:26:26.313Z,996.9
2016-03-04T03:27:26.379Z,996.83
2016-03-04T03:28:26.397Z,996.86
2016-03-04T03:29:26.462Z,996.81
2016-03-04T03:30:26.511Z,996.78
2016-03-04T03:31:26.561Z,996.77
2016-03-04T03:32:26.594Z,996.79
2016-03-04T03:33:26.660Z,996.84
2016-03-04T03:34:26.710Z,996.82
2016-03-04T03:35:26.760Z,996.77
2016-03-04T03:36:26.809Z,996.74
2016-03-04T03:37:26.858Z,996.75
2016-03-04T03:38:26.907Z,996.75
2016-03-04T03:39:26.973Z,996.72
2016-03-04T03:40:27.008Z,996.68
2016-03-04T03:41:27.073Z,996.64
2016-03-04T03:42:27.122Z,996.62
2016-03-04T03:43:27.171Z,996.59
2016-03-04T03:44:27.221Z,996.59
2016-03-04T03:45:27.270Z,996.56
2016-03-04T03:46:27.304Z,996.52
2016-03-04T03:47:27.370Z,996.48
2016-03-04T03:48:27.420Z,996.42
2016-03-04T03:49:27.485Z,996.44
2016-03-04T03:50:27.534Z,996.39
2016-03-04T03:51:27.567Z,996.41
2016-03-04T03:52:27.617Z,996.37
2016-03-04T03:53:27.684Z,996.4
2016-03-04T03:54:27.716Z,996.38
2016-03-04T03:55:27.766Z,996.35
2016-03-04T03:56:27.847Z,996.31
2016-03-04T03:57:27.881Z,996.29
2016-03-04T03:58:27.930Z,996.3
2016-03-04T03:59:27.980Z,996.34
2016-03-04T04:00:28.014Z,996.29
2016-03-04T04:01:28.094Z,996.29
2016-03-04T04:02:28.129Z,996.25
2016-03-04T04:03:28.178Z,996.23
2016-03-04T04:04:28.227Z,996.26
2016-03-04T04:05:28.277Z,996.22
2016-03-04T04:06:28.358Z,996.18
2016-03-04T04:07:28.393Z,996.22
2016-03-04T04:08:28.427Z,996.16
2016-03-04T04:09:28.491Z,996.14
2016-03-04T04:10:28.541Z,996.06
2016-03-04T04:11:28.606Z,996.07
2016-03-04T04:12:28.640Z,996
2016-03-04T04:13:28.689Z,995.96
2016-03-04T04:14:28.740Z,995.99
2016-03-04T04:15:28.790Z,995.96
2016-03-04T04:16:28.838Z,995.94
2016-03-04T04:17:28.904Z,995.96
2016-03-04T04:18:28.953Z,995.87
2016-03-04T04:19:29.003Z,995.92
2016-03-04T04:20:29.052Z,995.91
2016-03-04T04:21:29.102Z,995.92
2016-03-04T04:22:29.151Z,995.92
2016-03-04T04:23:29.201Z,995.98
2016-03-04T04:24:29.234Z,995.9
2016-03-04T04:25:29.300Z,995.9
2016-03-04T04:26:29.333Z,995.83
2016-03-04T04:27:29.400Z,995.84
2016-03-04T04:28:29.450Z,995.8
2016-03-04T04:29:29.498Z,995.84
2016-03-04T04:30:29.563Z,995.8
2016-03-04T04:31:29.597Z,995.8
2016-03-04T04:32:29.647Z,995.71
2016-03-04T04:33:29.696Z,995.73
2016-03-04T04:34:29.746Z,995.71
2016-03-04T04:35:29.827Z,995.73
2016-03-04T04:36:29.861Z,995.73
2016-03-04T04:37:29.894Z,995.69
2016-03-04T04:38:29.944Z,995.67
2016-03-04T04:39:30.009Z,995.67
2016-03-04T04:40:30.059Z,995.66
2016-03-04T04:41:30.109Z,995.64
2016-03-04T04:42:30.157Z,995.68
2016-03-04T04:43:30.208Z,995.64
2016-03-04T04:44:30.257Z,995.59
2016-03-04T04:45:30.307Z,995.61
2016-03-04T04:46:30.356Z,995.57
2016-03-04T04:47:30.422Z,995.55
2016-03-04T04:48:30.456Z,995.53
2016-03-04T04:49:30.506Z,995.5
2016-03-04T04:50:30.570Z,995.49
2016-03-04T04:51:30.651Z,995.47
2016-03-04T04:52:30.659Z,995.43
2016-03-04T04:53:30.757Z,995.42
2016-03-04T04:54:30.762Z,995.4
2016-03-04T04:55:30.801Z,995.39
2016-03-04T04:56:30.883Z,995.36
2016-03-04T04:57:30.916Z,995.4
2016-03-04T04:58:30.997Z,995.4
2016-03-04T04:59:31.015Z,995.34
2016-03-04T05:00:31.049Z,995.33
2016-03-04T05:01:31.114Z,995.35
2016-03-04T05:02:31.164Z,995.33
2016-03-04T05:03:31.215Z,995.31
2016-03-04T05:04:31.279Z,995.27
2016-03-04T05:05:31.313Z,995.22
2016-03-04T05:06:31.378Z,995.2
2016-03-04T05:07:31.428Z,995.19
2016-03-04T05:08:31.478Z,995.14
2016-03-04T05:09:31.512Z,995.15
2016-03-04T05:10:31.576Z,995.15
2016-03-04T05:11:31.626Z,995.09
2016-03-04T05:12:31.691Z,995.06
2016-03-04T05:13:31.725Z,995.05
2016-03-04T05:14:31.774Z,995
2016-03-04T05:15:31.840Z,995.01
2016-03-04T05:16:31.875Z,994.96
2016-03-04T05:17:31.939Z,994.95
2016-03-04T05:18:31.973Z,994.98
2016-03-04T05:19:32.022Z,995.02
2016-03-04T05:20:32.072Z,994.95
2016-03-04T05:21:32.138Z,995
2016-03-04T05:22:32.203Z,994.97
2016-03-04T05:23:32.236Z,995
2016-03-04T05:24:32.286Z,994.95
2016-03-04T05:25:32.319Z,994.94
2016-03-04T05:26:32.385Z,994.97
2016-03-04T05:27:32.434Z,994.94
2016-03-04T05:28:32.485Z,994.94
2016-03-04T05:29:32.535Z,994.94
2016-03-04T05:30:32.583Z,994.89
2016-03-04T05:31:32.633Z,994.93
2016-03-04T05:32:32.682Z,994.93
2016-03-04T05:33:32.732Z,994.95
2016-03-04T05:34:32.798Z,994.93
2016-03-04T05:35:32.846Z,994.92
2016-03-04T05:36:32.881Z,994.92
2016-03-04T05:37:32.946Z,994.91
2016-03-04T05:38:32.995Z,994.91
2016-03-04T05:39:33.045Z,994.88
2016-03-04T05:40:33.094Z,994.83
2016-03-04T05:41:33.145Z,994.84
2016-03-04T05:42:33.195Z,994.83
2016-03-04T05:43:33.259Z,994.83
2016-03-04T05:44:33.293Z,994.81
2016-03-04T05:45:33.342Z,994.79
2016-03-04T05:46:33.392Z,994.8
2016-03-04T05:47:33.441Z,994.79
2016-03-04T05:48:33.491Z,994.77
2016-03-04T05:49:33.541Z,994.79
2016-03-04T05:50:33.591Z,994.78
2016-03-04T05:51:33.655Z,994.74
2016-03-04T05:52:33.689Z,994.69
2016-03-04T05:53:33.754Z,994.73
2016-03-04T05:54:33.805Z,994.72
2016-03-04T05:55:33.854Z,994.69
2016-03-04T05:56:33.903Z,994.74
2016-03-04T05:57:33.953Z,994.69
2016-03-04T05:58:34.002Z,994.63
2016-03-04T05:59:34.052Z,994.62
2016-03-04T06:00:34.101Z,994.6
2016-03-04T06:01:34.151Z,994.61
2016-03-04T06:02:34.201Z,994.59
2016-03-04T06:03:34.251Z,994.56
2016-03-04T06:04:34.300Z,994.56
2016-03-04T06:05:34.365Z,994.61
2016-03-04T06:06:34.399Z,994.53
2016-03-04T06:07:34.445Z,994.57
2016-03-04T06:08:34.499Z,994.55
2016-03-04T06:09:34.535Z,994.58
2016-03-04T06:10:34.572Z,994.56
2016-03-04T06:11:34.594Z,994.51
2016-03-04T06:12:34.647Z,994.51
2016-03-04T06:13:34.676Z,994.49
2016-03-04T06:14:34.721Z,994.47
2016-03-04T06:15:34.783Z,994.52
2016-03-04T06:16:34.828Z,994.49
2016-03-04T06:17:34.873Z,994.48
2016-03-04T06:18:34.921Z,994.47
2016-03-04T06:19:34.969Z,994.48
2016-03-04T06:20:35.017Z,994.43
2016-03-04T06:21:35.065Z,994.43
2016-03-04T06:22:35.144Z,994.39
2016-03-04T06:23:35.162Z,994.36
2016-03-04T06:24:35.211Z,994.36
2016-03-04T06:25:35.291Z,994.36
2016-03-04T06:26:35.324Z,994.3
2016-03-04T06:27:35.357Z,994.31
2016-03-04T06:28:35.407Z,994.3
2016-03-04T06:29:35.457Z,994.26
2016-03-04T06:30:35.522Z,994.3
2016-03-04T06:31:35.556Z,994.35
2016-03-04T06:32:35.621Z,994.32
2016-03-04T06:33:35.670Z,994.23
2016-03-04T06:34:35.720Z,994.24
2016-03-04T06:35:35.754Z,994.24
2016-03-04T06:36:35.804Z,994.23
2016-03-04T06:37:35.869Z,994.26
2016-03-04T06:38:35.918Z,994.21
2016-03-04T06:39:35.968Z,994.24
2016-03-04T06:40:36.017Z,994.16
2016-03-04T06:41:36.067Z,994.17
2016-03-04T06:42:36.117Z,994.16
2016-03-04T06:43:36.167Z,994.16
2016-03-04T06:44:36.216Z,994.15
2016-03-04T06:45:36.281Z,994.09
2016-03-04T06:46:36.314Z,994.08
2016-03-04T06:47:36.364Z,994.08
2016-03-04T06:48:36.429Z,994.07
2016-03-04T06:49:36.464Z,994.06
2016-03-04T06:50:36.514Z,994.07
2016-03-04T06:51:36.578Z,994.03
2016-03-04T06:52:36.628Z,994.05
2016-03-04T06:53:36.677Z,994.02
2016-03-04T06:54:36.727Z,994.01
2016-03-04T06:55:36.777Z,994
2016-03-04T06:56:36.826Z,993.98
2016-03-04T06:57:36.876Z,993.92
2016-03-04T06:58:36.926Z,993.94
2016-03-04T06:59:36.974Z,993.91
2016-03-04T07:00:37.024Z,993.91
2016-03-04T07:01:37.073Z,993.91
2016-03-04T07:02:37.124Z,993.87
2016-03-04T07:03:37.173Z,993.88
2016-03-04T07:04:37.238Z,993.82
2016-03-04T07:05:37.273Z,993.85
2016-03-04T07:06:37.338Z,993.8
2016-03-04T07:07:37.387Z,993.83
2016-03-04T07:08:37.420Z,993.84
2016-03-04T07:09:37.486Z,993.81
2016-03-04T07:10:37.536Z,993.8
2016-03-04T07:11:37.586Z,993.8
2016-03-04T07:12:37.635Z,993.73
2016-03-04T07:13:37.685Z,993.75
2016-03-04T07:14:37.734Z,993.81
2016-03-04T07:15:37.783Z,993.74
2016-03-04T07:16:37.833Z,993.72
2016-03-04T07:17:37.883Z,993.67
2016-03-04T07:18:37.947Z,993.67
2016-03-04T07:19:37.997Z,993.62
2016-03-04T07:20:38.031Z,993.67
2016-03-04T07:21:38.097Z,993.65
2016-03-04T07:22:38.130Z,993.63
2016-03-04T07:23:38.196Z,993.54
2016-03-04T07:24:38.246Z,993.62
2016-03-04T07:25:38.279Z,993.55
2016-03-04T07:26:38.360Z,993.54
2016-03-04T07:27:38.393Z,993.55
2016-03-04T07:28:38.443Z,993.55
2016-03-04T07:29:38.493Z,993.58
2016-03-04T07:30:38.542Z,993.46
2016-03-04T07:31:38.593Z,993.46
2016-03-04T07:32:38.642Z,993.47
2016-03-04T07:33:38.707Z,993.41
2016-03-04T07:34:38.741Z,993.39
2016-03-04T07:35:38.790Z,993.4
2016-03-04T07:36:38.840Z,993.34
2016-03-04T07:37:38.905Z,993.32
2016-03-04T07:38:38.955Z,993.31
2016-03-04T07:39:38.989Z,993.35
2016-03-04T07:40:39.039Z,993.34
2016-03-04T07:41:39.087Z,993.29
2016-03-04T07:42:39.122Z,993.35
2016-03-04T07:43:39.187Z,993.31
2016-03-04T07:44:39.236Z,993.28
2016-03-04T07:45:39.287Z,993.25
2016-03-04T07:46:39.336Z,993.27
2016-03-04T07:47:39.385Z,993.3
2016-03-04T07:48:39.419Z,993.28
2016-03-04T07:49:39.484Z,993.3
2016-03-04T07:50:39.533Z,993.22
2016-03-04T07:51:39.583Z,993.26
2016-03-04T07:52:39.632Z,993.2
2016-03-04T07:53:39.683Z,993.18
2016-03-04T07:54:39.732Z,993.09
2016-03-04T07:55:39.782Z,993.09
2016-03-04T07:56:39.832Z,993.06
2016-03-04T07:57:39.880Z,993.04
2016-03-04T07:58:39.930Z,993.02
2016-03-04T07:59:39.980Z,993.03
2016-03-04T08:00:40.030Z,992.94
2016-03-04T08:01:40.079Z,992.99
2016-03-04T08:02:40.128Z,992.94
2016-03-04T08:03:40.179Z,992.92
2016-03-04T08:04:40.228Z,992.91
2016-03-04T08:05:40.277Z,992.86
2016-03-04T08:06:40.312Z,992.84
2016-03-04T08:07:40.376Z,992.82
2016-03-04T08:08:40.410Z,992.75
2016-03-04T08:09:40.459Z,992.76
2016-03-04T08:10:40.510Z,992.74
2016-03-04T08:11:40.559Z,992.68
2016-03-04T08:12:40.608Z,992.67
2016-03-04T08:13:40.658Z,992.64
2016-03-04T08:14:40.708Z,992.66
2016-03-04T08:15:40.758Z,992.63
2016-03-04T08:16:40.839Z,992.66
2016-03-04T08:17:40.873Z,992.65
2016-03-04T08:18:40.922Z,992.64
2016-03-04T08:19:40.971Z,992.65
2016-03-04T08:20:41.021Z,992.6
2016-03-04T08:21:41.070Z,992.59
2016-03-04T08:22:41.120Z,992.55
2016-03-04T08:23:41.185Z,992.56
2016-03-04T08:24:41.219Z,992.52
2016-03-04T08:25:41.268Z,992.58
2016-03-04T08:26:41.318Z,992.54
2016-03-04T08:27:41.368Z,992.56
2016-03-04T08:28:41.402Z,992.51
2016-03-04T08:29:41.466Z,992.47
2016-03-04T08:30:41.501Z,992.5
2016-03-04T08:31:41.566Z,992.42
2016-03-04T08:32:41.599Z,992.52
2016-03-04T08:33:41.665Z,992.46
2016-03-04T08:34:41.699Z,992.4
2016-03-04T08:35:41.764Z,992.37
2016-03-04T08:36:41.814Z,992.32
2016-03-04T08:37:41.863Z,992.32
2016-03-04T08:38:41.913Z,992.29
2016-03-04T08:39:41.962Z,992.24
2016-03-04T08:40:42.012Z,992.27
2016-03-04T08:41:42.062Z,992.22
2016-03-04T08:42:42.111Z,992.21
2016-03-04T08:43:42.176Z,992.19
2016-03-04T08:44:42.211Z,992.14
2016-03-04T08:45:42.259Z,992.17
2016-03-04T08:46:42.309Z,992.09
2016-03-04T08:47:42.375Z,992.14
2016-03-04T08:48:42.409Z,992.03
2016-03-04T08:49:42.474Z,992.03
2016-03-04T08:50:42.523Z,991.95
2016-03-04T08:51:42.573Z,992
2016-03-04T08:52:42.607Z,991.99
2016-03-04T08:53:42.655Z,991.95
2016-03-04T08:54:42.706Z,991.91
2016-03-04T08:55:42.755Z,991.89
2016-03-04T08:56:42.821Z,991.74
2016-03-04T08:57:42.871Z,991.73
2016-03-04T08:58:42.904Z,991.69
2016-03-04T08:59:42.969Z,991.63
2016-03-04T09:00:43.019Z,991.66
2016-03-04T09:01:43.068Z,991.61
2016-03-04T09:02:43.118Z,991.63
2016-03-04T09:03:43.151Z,991.65
2016-03-04T09:04:43.218Z,991.6
2016-03-04T09:05:43.252Z,991.65
2016-03-04T09:06:43.317Z,991.63
2016-03-04T09:07:43.367Z,991.63
2016-03-04T09:08:43.416Z,991.6
2016-03-04T09:09:43.450Z,991.6
2016-03-04T09:10:43.516Z,991.55
2016-03-04T09:11:43.580Z,991.53
2016-03-04T09:12:43.616Z,991.52
2016-03-04T09:13:43.664Z,991.49
2016-03-04T09:14:43.714Z,991.45
2016-03-04T09:15:43.763Z,991.43
2016-03-04T09:16:43.813Z,991.37
2016-03-04T09:17:43.862Z,991.36
2016-03-04T09:18:43.912Z,991.26
2016-03-04T09:19:43.961Z,991.29
2016-03-04T09:20:44.012Z,991.31
2016-03-04T09:21:44.076Z,991.29
2016-03-04T09:22:44.126Z,991.32
2016-03-04T09:23:44.160Z,991.31
2016-03-04T09:24:44.209Z,991.31
2016-03-04T09:25:44.259Z,991.26
2016-03-04T09:26:44.309Z,991.27
2016-03-04T09:27:44.373Z,991.23
2016-03-04T09:28:44.423Z,991.27
2016-03-04T09:29:44.489Z,991.27
2016-03-04T09:30:44.522Z,991.22
2016-03-04T09:31:44.573Z,991.24
2016-03-04T09:32:44.622Z,991.19
2016-03-04T09:33:44.655Z,991.22
2016-03-04T09:34:44.720Z,991.21
2016-03-04T09:35:44.770Z,991.17
2016-03-04T09:36:44.805Z,991.12
2016-03-04T09:37:44.869Z,991.13
2016-03-04T09:38:44.903Z,991.15
2016-03-04T09:39:44.969Z,991.17
2016-03-04T09:40:45.019Z,991.2
2016-03-04T09:41:45.068Z,991.23
2016-03-04T09:42:45.117Z,991.18
2016-03-04T09:43:45.182Z,991.16
2016-03-04T09:44:45.216Z,991.16
2016-03-04T09:45:45.282Z,991.14
2016-03-04T09:46:45.331Z,991.1
2016-03-04T09:47:45.380Z,991.1
2016-03-04T09:48:45.415Z,991.05
2016-03-04T09:49:45.511Z,991.09
2016-03-04T09:50:45.514Z,991.08
2016-03-04T09:51:45.563Z,991.04
2016-03-04T09:52:45.612Z,991.05
2016-03-04T09:53:45.679Z,991.03
2016-03-04T09:54:45.728Z,991.05
2016-03-04T09:55:45.761Z,991.03
2016-03-04T09:56:45.859Z,991.06
2016-03-04T09:57:45.876Z,991.01
2016-03-04T09:58:45.926Z,991.06
2016-03-04T09:59:45.976Z,991.07
2016-03-04T10:00:46.040Z,991.01
2016-03-04T10:01:46.075Z,991.04
2016-03-04T10:02:46.140Z,990.99
2016-03-04T10:03:46.189Z,990.92
2016-03-04T10:04:46.238Z,990.89
2016-03-04T10:05:46.289Z,990.87
2016-03-04T10:06:46.353Z,990.81
2016-03-04T10:07:46.388Z,990.81
2016-03-04T10:08:46.453Z,990.79
2016-03-04T10:09:46.518Z,990.8
2016-03-04T10:10:46.536Z,990.78
2016-03-04T10:11:46.602Z,990.78
2016-03-04T10:12:46.635Z,990.78
2016-03-04T10:13:46.669Z,990.75
2016-03-04T10:14:46.735Z,990.72
2016-03-04T10:15:46.784Z,990.69
2016-03-04T10:16:46.834Z,990.68
2016-03-04T10:17:46.883Z,990.68
2016-03-04T10:18:46.948Z,990.65
2016-03-04T10:19:46.983Z,990.61
2016-03-04T10:20:47.048Z,990.62
2016-03-04T10:21:47.081Z,990.54
2016-03-04T10:22:47.147Z,990.48
2016-03-04T10:23:47.196Z,990.42
2016-03-04T10:24:47.246Z,990.41
2016-03-04T10:25:47.311Z,990.4
2016-03-04T10:26:47.345Z,990.36
2016-03-04T10:27:47.410Z,990.31
2016-03-04T10:28:47.459Z,990.33
2016-03-04T10:29:47.509Z,990.27
2016-03-04T10:30:47.542Z,990.3
2016-03-04T10:31:47.609Z,990.18
2016-03-04T10:32:47.642Z,990.17
2016-03-04T10:33:47.708Z,990.13
2016-03-04T10:34:47.757Z,990.14
2016-03-04T10:35:47.822Z,990.12
2016-03-04T10:36:47.856Z,990.07
2016-03-04T10:37:47.890Z,990.03
2016-03-04T10:38:47.955Z,990.03
2016-03-04T10:39:48.005Z,989.97
2016-03-04T10:40:48.055Z,989.96
2016-03-04T10:41:48.119Z,989.95
2016-03-04T10:42:48.153Z,989.91
2016-03-04T10:43:48.202Z,989.86
2016-03-04T10:44:48.269Z,989.9
2016-03-04T10:45:48.302Z,989.84
2016-03-04T10:46:48.367Z,989.87
2016-03-04T10:47:48.402Z,989.83
2016-03-04T10:48:48.482Z,989.79
2016-03-04T10:49:48.672Z,989.75
2016-03-04T10:50:48.566Z,989.74
2016-03-04T10:51:48.600Z,989.73
2016-03-04T10:52:48.665Z,989.73
2016-03-04T10:53:48.715Z,989.74
2016-03-04T10:54:48.764Z,989.74
2016-03-04T10:55:48.813Z,989.69
2016-03-04T10:56:48.863Z,989.68
2016-03-04T10:57:48.913Z,989.71
2016-03-04T10:58:48.962Z,989.73
2016-03-04T10:59:49.011Z,989.7
2016-03-04T11:00:49.062Z,989.73
2016-03-04T11:01:49.142Z,989.72
2016-03-04T11:02:49.160Z,989.68
2016-03-04T11:03:49.226Z,989.68
2016-03-04T11:04:49.276Z,989.66
2016-03-04T11:05:49.325Z,989.66
2016-03-04T11:06:49.389Z,989.65
2016-03-04T11:07:49.440Z,989.63
2016-03-04T11:08:49.489Z,989.58
2016-03-04T11:09:49.522Z,989.54
2016-03-04T11:10:49.604Z,989.49
2016-03-04T11:11:49.622Z,989.54
2016-03-04T11:12:49.688Z,989.56
2016-03-04T11:13:49.722Z,989.53
2016-03-04T11:14:49.786Z,989.55
2016-03-04T11:15:49.836Z,989.52
2016-03-04T11:16:49.885Z,989.58
2016-03-04T11:17:49.935Z,989.41
2016-03-04T11:18:49.985Z,989.42
2016-03-04T11:19:50.034Z,989.46
2016-03-04T11:20:50.085Z,989.44
2016-03-04T11:21:50.133Z,989.4
2016-03-04T11:22:50.182Z,989.35
2016-03-04T11:23:50.264Z,989.27
2016-03-04T11:24:50.313Z,989.26
2016-03-04T11:25:50.348Z,989.24
2016-03-04T11:26:50.396Z,989.2
2016-03-04T11:27:50.463Z,989.15
2016-03-04T11:28:50.512Z,989.24
2016-03-04T11:29:50.561Z,989.21
2016-03-04T11:30:50.595Z,989.22
2016-03-04T11:31:50.645Z,989.14
2016-03-04T11:32:50.694Z,989.14
2016-03-04T11:33:50.759Z,989.17
2016-03-04T11:34:50.809Z,989.16
2016-03-04T11:35:50.875Z,989.17
2016-03-04T11:36:50.908Z,989.16
2016-03-04T11:37:50.973Z,989.16
2016-03-04T11:38:51.039Z,989.17
2016-03-04T11:39:51.072Z,989.19
2016-03-04T11:40:51.122Z,989.18
2016-03-04T11:41:51.172Z,989.18
2016-03-04T11:42:51.222Z,989.2
2016-03-04T11:43:51.255Z,989.21
2016-03-04T11:44:51.319Z,989.18
2016-03-04T11:45:51.370Z,989.22
2016-03-04T11:46:51.435Z,989.22
2016-03-04T11:47:51.485Z,989.2
2016-03-04T11:48:51.550Z,989.14
2016-03-04T11:49:51.584Z,989.16
2016-03-04T11:50:51.649Z,989.12
2016-03-04T11:51:51.682Z,989.11
2016-03-04T11:52:51.733Z,989.17
2016-03-04T11:53:51.798Z,989.06
2016-03-04T11:54:51.831Z,988.96
2016-03-04T11:55:51.896Z,988.98
2016-03-04T11:56:51.946Z,988.94
2016-03-04T11:57:51.996Z,988.94
2016-03-04T11:58:52.029Z,988.93
2016-03-04T11:59:52.095Z,988.91
2016-03-04T12:00:52.145Z,988.94
2016-03-04T12:01:52.209Z,988.92
2016-03-04T12:02:52.243Z,988.96
2016-03-04T12:03:52.293Z,988.89
2016-03-04T12:04:52.343Z,988.86
2016-03-04T12:05:52.392Z,988.86
2016-03-04T12:06:52.458Z,988.91
2016-03-04T12:07:52.506Z,988.93
2016-03-04T12:08:52.556Z,988.88
2016-03-04T12:09:52.606Z,988.93
2016-03-04T12:10:52.656Z,988.85
2016-03-04T12:11:52.705Z,988.82
2016-03-04T12:12:52.755Z,988.84
2016-03-04T12:13:52.820Z,988.79
2016-03-04T12:14:52.854Z,988.73
2016-03-04T12:15:52.919Z,988.75
2016-03-04T12:16:52.953Z,988.69
2016-03-04T12:17:53.003Z,988.72
2016-03-04T12:18:53.052Z,988.59
2016-03-04T12:19:53.102Z,988.62
2016-03-04T12:20:53.167Z,988.62
2016-03-04T12:21:53.216Z,988.6
2016-03-04T12:22:53.282Z,988.62
2016-03-04T12:23:53.331Z,988.58
2016-03-04T12:24:53.366Z,988.55
2016-03-04T12:25:53.430Z,988.58
2016-03-04T12:26:53.479Z,988.54
2016-03-04T12:27:53.515Z,988.5
2016-03-04T12:28:53.563Z,988.51
2016-03-04T12:29:53.629Z,988.5
2016-03-04T12:30:53.678Z,988.48
2016-03-04T12:31:53.729Z,988.43